createdAt,value
2019-01-30T00:00:49.000Z,-2.40
2019-01-30T00:03:20.910Z,-2.40
2019-01-30T00:05:52.440Z,-2.40
2019-01-30T00:08:22.665Z,-2.50
2019-01-30T00:10:51.439Z,-2.40
2019-01-30T00:13:23.284Z,-2.40
2019-01-30T00:15:56.451Z,-2.50
2019-01-30T00:18:28.168Z,-2.50
2019-01-30T00:21:00.681Z,-2.50
2019-01-30T00:23:35.025Z,-2.50
2019-01-30T00:26:08.491Z,-2.50
2019-01-30T00:28:42.649Z,-2.60
2019-01-30T00:31:14.740Z,-2.50
2019-01-30T00:33:47.434Z,-2.40
2019-01-30T00:36:18.357Z,-2.40
2019-01-30T00:38:49.453Z,-2.50
2019-01-30T00:41:18.557Z,-2.50
2019-01-30T00:43:48.105Z,-2.40
2019-01-30T00:46:21.545Z,-2.40
2019-01-30T00:48:53.658Z,-2.40
2019-01-30T00:51:25.513Z,-2.50
2019-01-30T00:53:56.529Z,-2.50
2019-01-30T00:56:27.512Z,-2.60
2019-01-30T00:58:58.464Z,-2.60
2019-01-30T01:01:30.484Z,-2.50
2019-01-30T01:04:01.345Z,-2.60
2019-01-30T01:06:32.241Z,-2.60
2019-01-30T01:09:04.040Z,-2.70
2019-01-30T01:11:36.205Z,-2.70
2019-01-30T01:14:06.674Z,-2.70
2019-01-30T01:16:38.786Z,-2.70
2019-01-30T01:19:14.402Z,-2.70
2019-01-30T01:21:46.346Z,-2.70
2019-01-30T01:24:17.326Z,-2.60
2019-01-30T01:26:46.396Z,-2.80
2019-01-30T01:29:17.782Z,-2.80
2019-01-30T01:31:49.135Z,-2.80
2019-01-30T01:34:18.803Z,-2.70
2019-01-30T01:36:47.573Z,-2.80
2019-01-30T01:39:17.197Z,-2.70
2019-01-30T01:41:47.243Z,-2.70
2019-01-30T01:44:18.483Z,-2.80
2019-01-30T01:46:50.381Z,-3.00
2019-01-30T01:49:22.285Z,-2.90
2019-01-30T01:51:53.263Z,-3.00
2019-01-30T01:54:25.970Z,-2.90
2019-01-30T01:56:56.973Z,-2.90
2019-01-30T01:59:28.662Z,-3.00
2019-01-30T02:02:00.269Z,-3.00
2019-01-30T02:04:30.426Z,-3.00
2019-01-30T02:07:00.459Z,-2.90
2019-01-30T02:09:30.746Z,-3.00
2019-01-30T02:12:01.692Z,-3.00
2019-01-30T02:14:34.160Z,-3.00
2019-01-30T02:17:04.189Z,-3.20
2019-01-30T02:19:36.909Z,-3.20
2019-01-30T02:22:07.307Z,-3.10
2019-01-30T02:24:38.318Z,-3.10
2019-01-30T02:27:10.130Z,-3.10
2019-01-30T02:29:41.282Z,-3.20
2019-01-30T02:32:13.210Z,-3.20
2019-01-30T02:34:43.714Z,-3.40
2019-01-30T02:37:14.188Z,-3.30
2019-01-30T02:39:44.746Z,-3.30
2019-01-30T02:42:16.029Z,-3.20
2019-01-30T02:44:46.386Z,-3.40
2019-01-30T02:47:18.236Z,-3.30
2019-01-30T02:49:49.117Z,-3.40
2019-01-30T02:52:21.128Z,-3.30
2019-01-30T02:54:52.394Z,-3.20
2019-01-30T02:57:25.907Z,-3.40
2019-01-30T02:59:57.521Z,-3.40
2019-01-30T03:02:29.053Z,-3.40
2019-01-30T03:05:00.310Z,-3.50
2019-01-30T03:07:30.378Z,-3.50
2019-01-30T03:10:02.222Z,-3.50
2019-01-30T03:12:36.285Z,-3.40
2019-01-30T03:15:09.221Z,-3.50
2019-01-30T03:17:44.341Z,-3.50
2019-01-30T03:20:16.843Z,-3.60
2019-01-30T03:22:48.026Z,-3.50
2019-01-30T03:25:19.223Z,-3.60
2019-01-30T03:27:50.173Z,-3.50
2019-01-30T03:30:23.161Z,-3.50
2019-01-30T03:32:53.685Z,-3.50
2019-01-30T03:35:25.240Z,-3.50
2019-01-30T03:37:56.196Z,-3.50
2019-01-30T03:40:27.346Z,-3.60
2019-01-30T03:42:59.311Z,-3.50
2019-01-30T03:45:31.164Z,-3.50
2019-01-30T03:48:03.794Z,-3.60
2019-01-30T03:50:36.649Z,-3.50
2019-01-30T03:53:09.386Z,-3.60
2019-01-30T03:55:41.288Z,-3.60
2019-01-30T03:58:12.239Z,-3.60
2019-01-30T04:00:43.127Z,-3.60
2019-01-30T04:03:16.021Z,-3.70
2019-01-30T04:05:49.400Z,-3.60
2019-01-30T04:08:20.914Z,-3.70
2019-01-30T04:10:51.209Z,-3.70
2019-01-30T04:13:22.321Z,-3.70
2019-01-30T04:15:53.182Z,-3.80
2019-01-30T04:18:26.408Z,-3.90
2019-01-30T04:20:59.401Z,-4.10
2019-01-30T04:23:29.780Z,-4.00
2019-01-30T04:25:58.806Z,-4.00
2019-01-30T04:28:28.005Z,-4.20
2019-01-30T04:30:59.084Z,-4.20
2019-01-30T04:33:30.613Z,-4.30
2019-01-30T04:36:01.451Z,-4.10
2019-01-30T04:38:33.026Z,-4.40
2019-01-30T04:41:03.297Z,-4.40
2019-01-30T04:43:34.107Z,-4.30
2019-01-30T04:46:06.176Z,-4.40
2019-01-30T04:48:38.653Z,-4.40
2019-01-30T04:51:12.214Z,-4.50
2019-01-30T04:53:43.213Z,-4.30
2019-01-30T04:56:13.344Z,-4.30
2019-01-30T04:58:42.846Z,-4.60
2019-01-30T05:01:13.052Z,-4.50
2019-01-30T05:03:44.117Z,-4.60
2019-01-30T05:06:18.187Z,-4.40
2019-01-30T05:08:48.932Z,-4.60
2019-01-30T05:11:19.163Z,-4.70
2019-01-30T05:13:49.339Z,-4.70
2019-01-30T05:16:19.641Z,-4.60
2019-01-30T05:18:48.689Z,-4.60
2019-01-30T05:21:22.219Z,-4.70
2019-01-30T05:23:53.679Z,-4.80
2019-01-30T05:26:26.219Z,-4.90
2019-01-30T05:28:57.657Z,-5.00
2019-01-30T05:31:31.151Z,-4.80
2019-01-30T05:34:01.134Z,-4.80
2019-01-30T05:36:31.645Z,-5.00
2019-01-30T05:39:04.584Z,-4.90
2019-01-30T05:41:37.233Z,-4.90
2019-01-30T05:44:07.569Z,-4.80
2019-01-30T05:46:39.109Z,-4.80
2019-01-30T05:49:10.153Z,-4.90
2019-01-30T05:51:43.062Z,-4.70
2019-01-30T05:54:16.136Z,-4.70
2019-01-30T05:56:48.969Z,-4.90
2019-01-30T05:59:19.999Z,-4.80
2019-01-30T06:01:50.793Z,-4.80
2019-01-30T06:04:20.942Z,-4.70
2019-01-30T06:06:50.281Z,-4.70
2019-01-30T06:09:18.905Z,-4.60
2019-01-30T06:11:48.971Z,-4.70
2019-01-30T06:14:18.188Z,-4.70
2019-01-30T06:16:47.196Z,-4.80
2019-01-30T06:19:19.703Z,-4.80
2019-01-30T06:21:50.437Z,-4.60
2019-01-30T06:24:21.815Z,-4.60
2019-01-30T06:26:55.357Z,-4.60
2019-01-30T06:29:27.886Z,-4.60
2019-01-30T06:31:58.841Z,-4.60
2019-01-30T06:34:33.783Z,-4.40
2019-01-30T06:37:05.827Z,-4.30
2019-01-30T06:39:38.312Z,-4.20
2019-01-30T06:42:10.281Z,-4.10
2019-01-30T06:44:41.497Z,-4.00
2019-01-30T06:47:12.956Z,-3.90
2019-01-30T06:49:44.296Z,-4.00
2019-01-30T06:52:15.116Z,-4.10
2019-01-30T06:54:45.541Z,-3.90
2019-01-30T06:57:16.876Z,-4.00
2019-01-30T06:59:47.771Z,-3.90
2019-01-30T07:02:32.375Z,-3.90
2019-01-30T07:05:03.010Z,-3.30
2019-01-30T07:07:32.172Z,-3.00
2019-01-30T07:10:04.302Z,-2.60
2019-01-30T07:12:36.953Z,-2.50
2019-01-30T07:15:08.053Z,-1.90
2019-01-30T07:17:38.902Z,-1.60
2019-01-30T07:20:10.504Z,-1.50
2019-01-30T07:22:42.473Z,-1.40
2019-01-30T07:25:12.581Z,-1.30
2019-01-30T07:27:43.155Z,-1.20
2019-01-30T07:30:14.635Z,-1.10
2019-01-30T07:32:45.697Z,-0.90
2019-01-30T07:35:17.725Z,-0.90
2019-01-30T07:37:48.039Z,-1.10
2019-01-30T07:40:18.021Z,-1.00
2019-01-30T07:42:49.512Z,-0.90
2019-01-30T07:45:23.008Z,-0.80
2019-01-30T07:47:55.324Z,-0.90
2019-01-30T07:50:27.003Z,-0.80
2019-01-30T07:53:01.645Z,-0.80
2019-01-30T07:55:34.036Z,-0.80
2019-01-30T07:58:07.445Z,-0.70
2019-01-30T08:00:41.135Z,-0.80
2019-01-30T08:03:12.464Z,-0.80
2019-01-30T08:05:46.155Z,-0.80
2019-01-30T08:08:20.636Z,-0.70
2019-01-30T08:10:52.612Z,-0.70
2019-01-30T08:13:24.988Z,-0.60
2019-01-30T08:15:55.945Z,-0.60
2019-01-30T08:18:27.415Z,-0.50
2019-01-30T08:20:58.528Z,-0.60
2019-01-30T08:23:29.575Z,-0.60
2019-01-30T08:26:05.614Z,-0.60
2019-01-30T08:28:36.708Z,-0.60
2019-01-30T08:31:07.375Z,-0.60
2019-01-30T08:33:43.749Z,-0.60
2019-01-30T08:36:14.412Z,-0.50
2019-01-30T08:38:49.088Z,-0.60
2019-01-30T08:41:21.611Z,-0.60
2019-01-30T08:43:53.749Z,-0.60
2019-01-30T08:46:25.036Z,-0.60
2019-01-30T08:48:58.448Z,-0.50
2019-01-30T08:51:30.518Z,-0.50
2019-01-30T08:54:01.513Z,-0.50
2019-01-30T08:56:38.785Z,-0.50
2019-01-30T08:59:07.530Z,-0.60
2019-01-30T09:01:39.374Z,-0.50
2019-01-30T09:04:12.909Z,-0.50
2019-01-30T09:06:42.382Z,-0.40
2019-01-30T09:09:13.513Z,-0.50
2019-01-30T09:11:44.741Z,-0.50
2019-01-30T09:14:15.729Z,-0.50
2019-01-30T09:16:45.211Z,-0.50
2019-01-30T09:19:16.909Z,-0.40
2019-01-30T09:21:54.432Z,-0.40
2019-01-30T09:24:26.574Z,-0.50
2019-01-30T09:26:59.025Z,-0.50
2019-01-30T09:29:30.464Z,-0.60
2019-01-30T09:32:02.922Z,-0.60
2019-01-30T09:34:33.846Z,-0.60
2019-01-30T09:37:05.641Z,-0.60
2019-01-30T09:39:38.857Z,-0.60
2019-01-30T09:42:11.380Z,-0.70
2019-01-30T09:44:43.868Z,-0.60
2019-01-30T09:47:14.992Z,-0.70
2019-01-30T09:49:47.547Z,-0.70
2019-01-30T09:52:26.741Z,-0.70
2019-01-30T09:54:53.131Z,-0.70
2019-01-30T09:57:27.497Z,-0.70
2019-01-30T09:59:58.388Z,-0.70
2019-01-30T10:02:31.849Z,-0.80
2019-01-30T10:05:04.272Z,-0.80
2019-01-30T10:07:38.135Z,-0.80
2019-01-30T10:10:10.672Z,-0.80
2019-01-30T10:12:42.137Z,-0.80
2019-01-30T10:15:13.783Z,-0.80
2019-01-30T10:17:47.475Z,-0.80
2019-01-30T10:20:23.441Z,-0.80
2019-01-30T10:22:58.154Z,-0.80
2019-01-30T10:25:33.172Z,-0.80
2019-01-30T10:28:02.956Z,-0.80
2019-01-30T10:30:32.724Z,-0.80
2019-01-30T10:33:02.453Z,-0.80
2019-01-30T10:35:33.427Z,-0.80
2019-01-30T10:38:07.445Z,-0.80
2019-01-30T10:40:38.646Z,-0.80
2019-01-30T10:43:09.736Z,-0.80
2019-01-30T10:45:42.393Z,-0.80
2019-01-30T10:48:13.201Z,-0.80
2019-01-30T10:50:43.392Z,-0.90
2019-01-30T10:53:14.452Z,-0.90
2019-01-30T10:55:47.028Z,-0.90
2019-01-30T10:58:19.584Z,-0.90
2019-01-30T11:00:55.433Z,-0.80
2019-01-30T11:03:29.484Z,-0.90
2019-01-30T11:06:01.578Z,-0.80
2019-01-30T11:08:34.493Z,-0.80
2019-01-30T11:11:07.892Z,-0.80
2019-01-30T11:13:42.447Z,-0.80
2019-01-30T11:16:15.820Z,-0.90
2019-01-30T11:18:48.134Z,-0.90
2019-01-30T11:21:19.503Z,-0.80
2019-01-30T11:23:55.069Z,-0.80
2019-01-30T11:26:27.129Z,-0.80
2019-01-30T11:28:56.499Z,-0.90
2019-01-30T11:31:26.282Z,-0.90
2019-01-30T11:34:19.113Z,-0.90
2019-01-30T11:36:51.496Z,-0.80
2019-01-30T11:39:24.750Z,-0.90
2019-01-30T11:41:57.133Z,-0.90
2019-01-30T11:44:28.560Z,-0.90
2019-01-30T11:47:01.108Z,-0.80
2019-01-30T11:49:34.849Z,-0.90
2019-01-30T11:52:08.068Z,-0.90
2019-01-30T11:54:40.461Z,-0.90
2019-01-30T11:57:13.513Z,-0.80
2019-01-30T11:59:44.080Z,-0.90
2019-01-30T12:02:18.429Z,-1.10
2019-01-30T12:04:50.712Z,-1.10
2019-01-30T12:07:21.976Z,-1.20
2019-01-30T12:09:55.873Z,-1.30
2019-01-30T12:12:29.627Z,-1.30
2019-01-30T12:15:01.705Z,-1.40
2019-01-30T12:17:34.975Z,-1.30
2019-01-30T12:20:04.150Z,-1.30
2019-01-30T12:22:35.451Z,-1.20
2019-01-30T12:25:06.823Z,-1.20
2019-01-30T12:27:37.256Z,-1.20
2019-01-30T12:30:07.860Z,-1.20
2019-01-30T12:32:41.865Z,-1.20
2019-01-30T12:35:13.364Z,-1.20
2019-01-30T12:37:45.373Z,-1.20
2019-01-30T12:40:19.981Z,-1.20
2019-01-30T12:42:50.160Z,-1.20
2019-01-30T12:45:29.195Z,-1.20
2019-01-30T12:48:00.156Z,-1.20
2019-01-30T12:50:32.338Z,-1.20
2019-01-30T12:53:03.850Z,-1.20
2019-01-30T12:55:36.784Z,-1.20
2019-01-30T12:58:10.409Z,-1.30
2019-01-30T13:00:45.609Z,-1.30
2019-01-30T13:03:19.336Z,-1.30
2019-01-30T13:05:50.743Z,-1.30
2019-01-30T13:08:21.485Z,-1.30
2019-01-30T13:10:51.008Z,-1.30
2019-01-30T13:13:23.495Z,-1.40
2019-01-30T13:15:55.929Z,-1.40
2019-01-30T13:18:26.282Z,-1.30
2019-01-30T13:21:00.537Z,-1.40
2019-01-30T13:23:30.593Z,-1.40
2019-01-30T13:26:03.119Z,-1.40
2019-01-30T13:28:34.976Z,-1.40
2019-01-30T13:31:05.441Z,-1.40
2019-01-30T13:33:34.096Z,-1.40
2019-01-30T13:36:05.550Z,-1.40
2019-01-30T13:38:34.683Z,-1.40
2019-01-30T13:41:04.405Z,-1.40
2019-01-30T13:43:34.409Z,-1.40
2019-01-30T13:46:07.847Z,-1.40
2019-01-30T13:48:40.872Z,-1.40
2019-01-30T13:51:12.790Z,-1.40
2019-01-30T13:53:44.958Z,-1.50
2019-01-30T13:56:16.265Z,-1.40
2019-01-30T13:58:47.796Z,-1.40
2019-01-30T14:01:19.817Z,-1.40
2019-01-30T14:03:50.832Z,-1.40
2019-01-30T14:06:23.272Z,-1.40
2019-01-30T14:08:53.370Z,-1.40
2019-01-30T14:11:24.312Z,-1.40
2019-01-30T14:13:56.772Z,-1.40
2019-01-30T14:16:26.997Z,-1.40
2019-01-30T14:19:00.943Z,-1.40
2019-01-30T14:21:30.763Z,-1.40
2019-01-30T14:24:01.261Z,-1.40
2019-01-30T14:26:32.950Z,-1.40
2019-01-30T14:29:02.606Z,-1.50
2019-01-30T14:31:32.573Z,-1.40
2019-01-30T14:34:02.489Z,-1.50
2019-01-30T14:36:34.477Z,-1.50
2019-01-30T14:39:07.846Z,-1.50
2019-01-30T14:41:36.942Z,-1.50
2019-01-30T14:44:07.277Z,-1.50
2019-01-30T14:46:38.365Z,-1.50
2019-01-30T14:49:10.243Z,-1.50
2019-01-30T14:51:42.229Z,-1.50
2019-01-30T14:54:14.105Z,-1.50
2019-01-30T14:56:45.489Z,-1.50
2019-01-30T14:59:16.308Z,-1.50
2019-01-30T15:01:48.943Z,-1.60
2019-01-30T15:04:18.720Z,-1.50
2019-01-30T15:06:48.400Z,-1.50
2019-01-30T15:09:18.299Z,-1.60
2019-01-30T15:11:49.269Z,-1.50
2019-01-30T15:14:19.659Z,-1.60
2019-01-30T15:16:50.045Z,-1.60
2019-01-30T15:19:23.807Z,-1.60
2019-01-30T15:21:56.906Z,-1.60
2019-01-30T15:24:27.556Z,-1.60
2019-01-30T15:26:58.569Z,-1.60
2019-01-30T15:29:31.004Z,-1.60
2019-01-30T15:32:04.854Z,-1.60
2019-01-30T15:34:36.973Z,-1.60
2019-01-30T15:37:09.547Z,-1.60
2019-01-30T15:39:41.840Z,-1.60
2019-01-30T15:42:13.872Z,-1.60
2019-01-30T15:44:49.036Z,-1.70
2019-01-30T15:47:20.968Z,-1.70
2019-01-30T15:49:54.508Z,-1.70
2019-01-30T15:52:26.429Z,-1.70
2019-01-30T15:54:58.937Z,-1.70
2019-01-30T15:57:28.931Z,-1.70
2019-01-30T15:59:59.787Z,-1.70
2019-01-30T16:02:31.752Z,-1.70
2019-01-30T16:05:01.922Z,-1.70
2019-01-30T16:07:32.803Z,-1.70
2019-01-30T16:10:04.855Z,-1.70
2019-01-30T16:12:36.267Z,-1.70
2019-01-30T16:15:08.466Z,-1.70
2019-01-30T16:17:38.954Z,-1.70
2019-01-30T16:20:10.916Z,-1.70
2019-01-30T16:22:41.851Z,-1.70
2019-01-30T16:25:13.244Z,-1.80
2019-01-30T16:27:44.157Z,-1.80
2019-01-30T16:30:15.743Z,-1.80
2019-01-30T16:32:50.037Z,-1.80
2019-01-30T16:35:23.496Z,-1.80
2019-01-30T16:37:54.604Z,-1.80
2019-01-30T16:40:25.599Z,-1.80
2019-01-30T16:42:55.464Z,-1.80
2019-01-30T16:45:26.572Z,-1.80
2019-01-30T16:47:57.906Z,-1.90
2019-01-30T16:50:29.517Z,-1.80
2019-01-30T16:53:02.215Z,-1.80
2019-01-30T16:55:40.229Z,-1.80
2019-01-30T16:58:16.506Z,-1.80
2019-01-30T17:00:49.162Z,-1.90
2019-01-30T17:03:21.068Z,-1.80
2019-01-30T17:05:53.001Z,-1.90
2019-01-30T17:08:26.045Z,-1.90
2019-01-30T17:10:57.536Z,-1.90
2019-01-30T17:13:39.441Z,-1.90
2019-01-30T17:16:13.652Z,-1.90
2019-01-30T17:18:45.871Z,-1.90
2019-01-30T17:21:16.821Z,-1.90
2019-01-30T17:23:50.393Z,-1.90
2019-01-30T17:26:22.441Z,-1.90
2019-01-30T17:28:53.320Z,-1.90
2019-01-30T17:31:27.629Z,-1.90
2019-01-30T17:33:59.275Z,-2.00
2019-01-30T17:36:31.988Z,-2.00
2019-01-30T17:39:03.112Z,-2.00
2019-01-30T17:41:32.983Z,-2.00
2019-01-30T17:44:06.761Z,-2.00
2019-01-30T17:46:39.369Z,-2.00
2019-01-30T17:49:09.307Z,-2.00
2019-01-30T17:51:43.020Z,-2.10
2019-01-30T17:54:14.584Z,-2.10
2019-01-30T17:56:44.446Z,-2.10
2019-01-30T17:59:15.978Z,-2.10
2019-01-30T18:01:47.089Z,-2.10
2019-01-30T18:04:18.385Z,-2.10
2019-01-30T18:06:48.553Z,-2.10
2019-01-30T18:09:20.106Z,-2.20
2019-01-30T18:11:52.596Z,-2.10
2019-01-30T18:14:25.099Z,-2.10
2019-01-30T18:16:58.124Z,-2.20
2019-01-30T18:19:29.590Z,-2.20
2019-01-30T18:22:01.656Z,-2.20
2019-01-30T18:24:32.907Z,-2.20
2019-01-30T18:27:04.700Z,-2.20
2019-01-30T18:29:38.153Z,-2.20
2019-01-30T18:32:08.593Z,-2.30
2019-01-30T18:34:39.398Z,-2.20
2019-01-30T18:37:08.889Z,-2.30
2019-01-30T18:39:39.095Z,-2.30
2019-01-30T18:42:09.412Z,-2.30
2019-01-30T18:44:40.409Z,-2.30
2019-01-30T18:47:11.921Z,-2.40
2019-01-30T18:49:45.512Z,-2.40
2019-01-30T18:52:16.464Z,-2.40
2019-01-30T18:54:48.691Z,-2.30
2019-01-30T18:57:20.554Z,-2.30
2019-01-30T18:59:51.300Z,-2.40
2019-01-30T19:02:23.434Z,-2.30
2019-01-30T19:04:55.782Z,-2.30
2019-01-30T19:07:30.951Z,-2.40
2019-01-30T19:10:03.759Z,-2.40
2019-01-30T19:12:35.024Z,-2.40
2019-01-30T19:15:09.307Z,-2.40
2019-01-30T19:17:42.198Z,-2.40
2019-01-30T19:20:13.671Z,-2.40
2019-01-30T19:22:42.867Z,-2.40
2019-01-30T19:25:12.620Z,-2.40
2019-01-30T19:27:42.270Z,-2.40
2019-01-30T19:30:18.700Z,-2.40
2019-01-30T19:32:51.225Z,-2.40
2019-01-30T19:35:22.705Z,-2.40
2019-01-30T19:37:55.214Z,-2.50
2019-01-30T19:40:27.221Z,-2.40
2019-01-30T19:42:58.229Z,-2.50
2019-01-30T19:45:28.073Z,-2.40
2019-01-30T19:48:00.318Z,-2.50
2019-01-30T19:50:32.601Z,-2.50
2019-01-30T19:53:05.281Z,-2.40
2019-01-30T19:55:35.921Z,-2.50
2019-01-30T19:58:06.698Z,-2.50
2019-01-30T20:00:37.982Z,-2.50
2019-01-30T20:03:10.998Z,-2.50
2019-01-30T20:05:44.428Z,-2.60
2019-01-30T20:08:15.521Z,-2.60
2019-01-30T20:10:45.420Z,-2.60
2019-01-30T20:13:16.381Z,-2.60
2019-01-30T20:15:47.830Z,-2.60
2019-01-30T20:18:20.586Z,-2.60
2019-01-30T20:20:52.299Z,-2.60
2019-01-30T20:23:22.911Z,-2.60
2019-01-30T20:25:55.678Z,-2.60
2019-01-30T20:28:28.241Z,-2.60
2019-01-30T20:31:01.202Z,-2.60
2019-01-30T20:33:32.273Z,-2.60
2019-01-30T20:36:03.087Z,-2.60
2019-01-30T20:38:34.064Z,-2.60
2019-01-30T20:41:07.178Z,-2.60
2019-01-30T20:43:41.512Z,-2.70
2019-01-30T20:46:13.993Z,-2.70
2019-01-30T20:48:51.403Z,-2.70
2019-01-30T20:51:18.448Z,-2.60
2019-01-30T20:53:49.321Z,-2.60
2019-01-30T20:56:22.340Z,-2.60
2019-01-30T20:58:52.379Z,-2.70
2019-01-30T21:01:26.090Z,-2.70
2019-01-30T21:03:56.335Z,-2.70
2019-01-30T21:06:26.439Z,-2.70
2019-01-30T21:08:56.465Z,-2.70
2019-01-30T21:11:26.281Z,-2.80
2019-01-30T21:13:59.118Z,-2.70
2019-01-30T21:16:31.145Z,-2.70
2019-01-30T21:19:03.387Z,-2.70
2019-01-30T21:21:34.855Z,-2.80
2019-01-30T21:24:04.056Z,-2.80
2019-01-30T21:26:33.333Z,-2.80
2019-01-30T21:29:02.945Z,-2.80
2019-01-30T21:31:32.245Z,-2.80
2019-01-30T21:34:02.569Z,-2.80
2019-01-30T21:36:34.115Z,-2.80
2019-01-30T21:39:03.704Z,-2.80
2019-01-30T21:41:35.348Z,-2.80
2019-01-30T21:44:06.285Z,-2.80
2019-01-30T21:46:36.049Z,-2.80
2019-01-30T21:49:08.134Z,-2.80
2019-01-30T21:51:39.412Z,-2.80
2019-01-30T21:54:11.704Z,-2.80
2019-01-30T21:56:43.117Z,-2.80
2019-01-30T21:59:16.180Z,-2.80
2019-01-30T22:01:48.833Z,-2.90
2019-01-30T22:04:21.018Z,-2.80
2019-01-30T22:06:56.148Z,-2.90
2019-01-30T22:09:26.636Z,-2.90
2019-01-30T22:11:58.765Z,-2.80
2019-01-30T22:14:27.859Z,-2.80
2019-01-30T22:17:15.385Z,-2.80
2019-01-30T22:19:47.016Z,-2.80
2019-01-30T22:22:22.154Z,-2.80
2019-01-30T22:24:53.096Z,-2.90
2019-01-30T22:27:25.148Z,-2.90
2019-01-30T22:29:54.410Z,-2.90
2019-01-30T22:32:26.117Z,-2.90
2019-01-30T22:34:57.168Z,-2.90
2019-01-30T22:37:32.158Z,-2.90
2019-01-30T22:40:03.464Z,-2.90
2019-01-30T22:42:33.785Z,-2.90
2019-01-30T22:45:09.810Z,-3.00
2019-01-30T22:47:39.872Z,-3.00
2019-01-30T22:50:14.063Z,-3.00
2019-01-30T22:52:46.073Z,-2.90
2019-01-30T22:55:18.022Z,-3.00
2019-01-30T22:57:51.462Z,-2.90
2019-01-30T23:00:31.758Z,-2.90
2019-01-30T23:03:02.211Z,-2.90
2019-01-30T23:06:09.638Z,-2.90
2019-01-30T23:09:09.165Z,-3.00
2019-01-30T23:12:06.930Z,-2.90
2019-01-30T23:14:43.377Z,-2.90
2019-01-30T23:17:35.964Z,-3.00
2019-01-30T23:20:22.658Z,-3.00
2019-01-30T23:23:08.849Z,-3.10
2019-01-30T23:25:53.841Z,-3.10
2019-01-30T23:28:28.221Z,-3.20
2019-01-30T23:31:13.109Z,-3.20
2019-01-30T23:34:03.669Z,-3.20
2019-01-30T23:36:53.678Z,-3.20
2019-01-30T23:39:45.649Z,-3.20
2019-01-30T23:42:43.538Z,-3.30
2019-01-30T23:45:35.571Z,-3.30
2019-01-30T23:48:43.981Z,-3.40
2019-01-30T23:51:23.016Z,-3.40
2019-01-30T23:54:01.004Z,-3.40
2019-01-30T23:56:49.272Z,-3.50
2019-01-30T23:59:38.577Z,-3.50
